Pagrindinis puslapis
METAR-TAF:

METAR-TAF

Oro uostai :

Trumsė, Norvegija

platuma: 69-41N, ilguma: 018-55E, Aukštis: 1 m

Dabartinis oras

Ataskaita buvo paskelbta 10 minutes, ne 12:20 UTC
Vėjas 1 kt nuo kintamojo kryptimis
Temperatūra -3°C
Drėgmė 86%
Slėgis 994 hPa
Matomumas 10 km arba daugiau
nėra debesų žemiau 1500 m ir nėra kamuolinių lietaus debesų

METAR: ENTC 161220Z VRB01KT CAVOK M03/M05 Q0994 NOSIG RMK WIND 2600FT 15008KT

Laikas: 13:30 (12:30 UTC)

Prognozė

Prognozė galioja nuo 16 metu 12 UTC su 17 metu 12 UTC
Vėjas 5 kt nuo kintamojo kryptimis
Matomumas 10 km arba daugiau
Mažai debesys ne aukštis 1500 ft
Su prošvaistėmis ne aukštis 4000 ft
Laikinai
nuo 16 metu 15 UTC su 16 metu 24 UTC
Matomumas: 2500 m
ne aukštis 1200 ft
sniegas

TAF: ENTC 1612/1712 VRB05KT 9999 FEW015 BKN040 TEMPO 1615/1624 2500 -SN VV012

Orai ataskaitas ir orų prognozės (METAR, TAF).

turimą stotys yra geltonos ir raudonos taškus žemėlapyje.

Perkelti pele per norėdami pamatyti stoties vardą.

Tada spustelėkite, norėdami matyti oro stebėjimo ir prognozės.

Norėdami pakeisti žemėlapį: spustelėkite ant žalios mygtukų su juodo kryžiaus žemyn,; žalią mygtuką su brūkšneliu, jei norite nutolinti; arba žalių rodyklių gretimoms žemėlapius.


METAR-TAF: